createdAt,value
2019-05-14T00:01:31.414Z,2.90
2019-05-14T00:04:02.928Z,2.07
2019-05-14T00:06:34.126Z,2.23
2019-05-14T00:09:06.724Z,1.87
2019-05-14T00:11:37.902Z,2.80
2019-05-14T00:14:11.430Z,2.13
2019-05-14T00:16:42.564Z,2.87
2019-05-14T00:19:14.105Z,2.77
2019-05-14T00:21:45.439Z,1.90
2019-05-14T00:24:16.651Z,2.37
2019-05-14T00:26:47.863Z,5.90
2019-05-14T00:29:21.857Z,3.37
2019-05-14T00:31:52.256Z,2.60
2019-05-14T00:34:23.478Z,3.00
2019-05-14T00:36:54.662Z,2.13
2019-05-14T00:39:26.017Z,1.90
2019-05-14T00:41:57.620Z,2.30
2019-05-14T00:44:28.906Z,2.20
2019-05-14T00:47:02.175Z,2.63
2019-05-14T00:49:33.143Z,2.30
2019-05-14T00:52:04.397Z,2.20
2019-05-14T00:54:36.396Z,1.97
2019-05-14T00:57:07.603Z,2.70
2019-05-14T00:59:38.811Z,2.30
2019-05-14T01:02:11.357Z,2.43
2019-05-14T01:04:43.172Z,2.27
2019-05-14T01:07:14.347Z,2.00
2019-05-14T01:09:45.807Z,2.53
2019-05-14T01:12:17.012Z,2.00
2019-05-14T01:14:48.671Z,2.70
2019-05-14T01:17:19.854Z,3.10
2019-05-14T01:19:51.474Z,2.70
2019-05-14T01:22:22.899Z,2.60
2019-05-14T01:24:54.171Z,2.13
2019-05-14T01:27:25.673Z,2.50
2019-05-14T01:29:56.866Z,2.30
2019-05-14T01:32:31.517Z,2.40
2019-05-14T01:35:02.668Z,5.50
2019-05-14T01:37:33.954Z,10.70
2019-05-14T01:40:05.683Z,14.60
2019-05-14T01:42:36.953Z,21.13
2019-05-14T01:45:21.904Z,22.27
2019-05-14T01:47:41.687Z,18.77
2019-05-14T01:50:15.822Z,16.77
2019-05-14T01:52:47.061Z,9.40
2019-05-14T01:55:18.419Z,5.30
2019-05-14T01:57:51.765Z,3.30
2019-05-14T02:00:23.926Z,4.33
2019-05-14T02:02:55.154Z,2.37
2019-05-14T02:05:26.637Z,2.10
2019-05-14T02:07:57.858Z,2.03
2019-05-14T02:10:31.499Z,1.80
2019-05-14T02:13:02.635Z,2.60
2019-05-14T02:15:39.646Z,2.60
2019-05-14T02:18:06.802Z,2.17
2019-05-14T02:20:38.316Z,1.90
2019-05-14T02:23:11.845Z,3.00
2019-05-14T02:25:42.609Z,2.03
2019-05-14T02:28:13.848Z,2.50
2019-05-14T02:30:55.973Z,2.77
2019-05-14T02:33:19.213Z,2.87
2019-05-14T02:35:50.789Z,2.50
2019-05-14T02:38:21.987Z,2.23
2019-05-14T02:40:53.797Z,2.13
2019-05-14T02:43:24.986Z,2.97
2019-05-14T02:46:09.047Z,2.27
2019-05-14T02:51:53.177Z,1.90
2019-05-14T02:54:24.830Z,2.50
2019-05-14T02:56:56.223Z,2.53
2019-05-14T02:59:30.622Z,2.40
2019-05-14T03:02:01.181Z,1.83
2019-05-14T03:04:32.569Z,2.17
2019-05-14T03:07:03.852Z,2.73
2019-05-14T03:09:35.268Z,2.43
2019-05-14T03:12:09.707Z,1.97
2019-05-14T03:14:40.201Z,2.40
2019-05-14T03:17:12.130Z,2.30
2019-05-14T03:19:43.514Z,1.60
2019-05-14T03:22:15.221Z,2.77
2019-05-14T03:24:46.506Z,2.67
2019-05-14T03:27:19.768Z,2.53
2019-05-14T03:29:51.327Z,2.20
2019-05-14T03:32:23.271Z,2.03
2019-05-14T03:34:55.118Z,2.20
2019-05-14T03:37:30.601Z,2.63
2019-05-14T03:39:59.836Z,3.13
2019-05-14T03:42:31.134Z,2.90
2019-05-14T03:45:02.643Z,2.90
2019-05-14T03:47:33.860Z,2.70
2019-05-14T03:50:05.358Z,2.83
2019-05-14T03:52:39.614Z,2.50
2019-05-14T03:55:09.963Z,2.53
2019-05-14T03:57:41.433Z,2.90
2019-05-14T04:00:12.863Z,2.67
2019-05-14T04:02:44.420Z,2.47
2019-05-14T04:05:18.764Z,2.63
2019-05-14T04:07:50.264Z,2.40
2019-05-14T04:10:22.234Z,2.53
2019-05-14T04:12:53.934Z,3.20
2019-05-14T04:15:29.633Z,3.53
2019-05-14T04:18:00.104Z,2.00
2019-05-14T04:20:33.138Z,2.87
2019-05-14T04:23:09.357Z,2.60
2019-05-14T04:25:41.657Z,2.90
2019-05-14T04:28:15.064Z,3.00
2019-05-14T04:30:49.343Z,2.50
2019-05-14T04:33:24.113Z,3.87
2019-05-14T04:35:59.866Z,4.23
2019-05-14T04:38:31.216Z,2.93
2019-05-14T04:41:02.510Z,4.60
2019-05-14T04:43:35.779Z,4.33
2019-05-14T04:46:10.431Z,3.27
2019-05-14T04:48:43.717Z,3.33
2019-05-14T04:51:13.272Z,3.57
2019-05-14T04:53:44.764Z,4.40
2019-05-14T04:56:19.275Z,4.10
2019-05-14T04:58:51.039Z,3.53
2019-05-14T05:01:22.364Z,2.50
2019-05-14T05:03:53.582Z,3.10
2019-05-14T05:06:24.835Z,2.10
2019-05-14T05:08:56.065Z,2.53
2019-05-14T05:11:29.131Z,2.73
2019-05-14T05:14:00.943Z,7.30
2019-05-14T05:16:32.172Z,5.63
2019-05-14T05:19:03.619Z,3.03
2019-05-14T05:21:35.171Z,2.90
2019-05-14T05:24:06.404Z,2.60
2019-05-14T05:26:39.253Z,2.53
2019-05-14T05:29:10.816Z,2.20
2019-05-14T05:31:42.043Z,2.27
2019-05-14T05:34:13.472Z,2.40
2019-05-14T05:36:44.673Z,2.30
2019-05-14T05:39:15.909Z,2.20
2019-05-14T05:41:49.203Z,2.23
2019-05-14T05:44:20.319Z,2.00
2019-05-14T05:46:51.544Z,1.90
2019-05-14T05:49:22.883Z,2.17
2019-05-14T05:51:54.371Z,3.10
2019-05-14T05:54:25.579Z,1.90
2019-05-14T05:56:58.184Z,1.60
2019-05-14T05:59:29.711Z,2.20
2019-05-14T06:02:01.789Z,1.97
2019-05-14T06:04:34.684Z,2.07
2019-05-14T06:07:06.228Z,2.50
2019-05-14T06:09:38.183Z,1.90
2019-05-14T06:12:09.781Z,2.63
2019-05-14T06:14:41.351Z,2.33
2019-05-14T06:17:12.540Z,2.00
2019-05-14T06:19:43.868Z,2.67
2019-05-14T06:22:15.214Z,2.30
2019-05-14T06:24:48.629Z,2.20
2019-05-14T06:27:19.512Z,2.10
2019-05-14T06:29:50.729Z,1.73
2019-05-14T06:32:21.960Z,2.83
2019-05-14T06:34:53.378Z,2.63
2019-05-14T06:37:24.583Z,2.07
2019-05-14T06:39:58.439Z,1.90
2019-05-14T06:42:29.223Z,2.20
2019-05-14T06:45:00.764Z,1.90
2019-05-14T06:47:32.644Z,1.97
2019-05-14T06:50:04.000Z,2.40
2019-05-14T06:52:35.215Z,2.10
2019-05-14T06:55:08.914Z,2.30
2019-05-14T06:57:40.004Z,1.90
2019-05-14T07:00:13.330Z,2.23
2019-05-14T07:02:44.569Z,2.67
2019-05-14T07:05:15.765Z,1.60
2019-05-14T07:07:49.320Z,1.67
2019-05-14T07:10:20.695Z,1.70
2019-05-14T07:12:54.969Z,2.17
2019-05-14T07:15:28.850Z,2.07
2019-05-14T07:17:59.321Z,2.00
2019-05-14T07:20:30.742Z,1.73
2019-05-14T07:23:02.381Z,1.53
2019-05-14T07:25:33.835Z,2.20
2019-05-14T07:28:05.053Z,1.83
2019-05-14T07:30:39.372Z,1.63
2019-05-14T07:33:09.671Z,1.70
2019-05-14T07:35:41.293Z,1.93
2019-05-14T07:38:12.900Z,1.57
2019-05-14T07:40:44.679Z,2.40
2019-05-14T07:43:15.907Z,2.37
2019-05-14T07:45:49.142Z,1.30
2019-05-14T07:48:20.022Z,2.13
2019-05-14T07:50:52.210Z,1.63
2019-05-14T07:53:35.174Z,2.00
2019-05-14T07:55:59.113Z,1.90
2019-05-14T07:58:29.887Z,1.87
2019-05-14T08:01:02.888Z,2.60
2019-05-14T08:03:38.210Z,1.90
2019-05-14T08:06:09.959Z,1.63
2019-05-14T08:08:41.606Z,1.47
2019-05-14T08:11:14.244Z,2.40
2019-05-14T08:13:49.376Z,2.33
2019-05-14T08:16:21.892Z,1.93
2019-05-14T08:18:53.177Z,1.77
2019-05-14T08:21:28.058Z,1.43
2019-05-14T08:23:59.323Z,2.20
2019-05-14T08:26:31.252Z,2.30
2019-05-14T08:29:02.677Z,1.83
2019-05-14T08:31:34.052Z,2.33
2019-05-14T08:34:06.683Z,5.60
2019-05-14T08:36:38.252Z,2.43
2019-05-14T08:39:09.570Z,2.83
2019-05-14T08:41:41.658Z,3.43
2019-05-14T08:44:12.892Z,2.23
2019-05-14T08:46:45.285Z,15.10
2019-05-14T08:49:18.447Z,2.10
2019-05-14T08:51:50.291Z,3.20
2019-05-14T08:54:21.729Z,3.73
2019-05-14T08:56:52.954Z,2.03
2019-05-14T08:59:24.180Z,3.03
2019-05-14T09:02:02.423Z,2.37
2019-05-14T09:04:30.622Z,2.37
2019-05-14T09:07:02.498Z,3.50
2019-05-14T09:09:33.678Z,24.93
2019-05-14T09:12:12.145Z,4.80
2019-05-14T09:14:40.392Z,7.37
2019-05-14T09:17:14.760Z,3.70
2019-05-14T09:20:01.036Z,3.20
2019-05-14T09:22:19.883Z,2.37
2019-05-14T09:24:51.347Z,2.57
2019-05-14T09:27:22.875Z,1.93
2019-05-14T09:29:54.854Z,1.30
2019-05-14T09:32:28.932Z,1.77
2019-05-14T09:34:59.317Z,1.73
2019-05-14T09:37:30.530Z,1.83
2019-05-14T09:40:03.064Z,1.90
2019-05-14T09:42:34.474Z,1.57
2019-05-14T09:45:10.511Z,1.50
2019-05-14T09:47:39.242Z,1.97
2019-05-14T09:50:22.742Z,1.50
2019-05-14T09:52:43.973Z,2.30
2019-05-14T09:55:18.128Z,1.30
2019-05-14T09:57:49.733Z,1.50
2019-05-14T10:00:20.935Z,1.20
2019-05-14T10:02:52.994Z,1.43
2019-05-14T10:05:24.580Z,2.03
2019-05-14T10:07:59.260Z,1.63
2019-05-14T10:10:32.843Z,1.60
2019-05-14T10:13:04.453Z,1.57
2019-05-14T10:15:38.951Z,1.30
2019-05-14T10:18:12.135Z,1.57
2019-05-14T10:20:45.990Z,1.53
2019-05-14T10:23:18.913Z,1.00
2019-05-14T10:25:49.939Z,1.30
2019-05-14T10:28:23.322Z,1.30
2019-05-14T10:30:54.919Z,1.10
2019-05-14T10:33:28.675Z,1.20
2019-05-14T10:36:01.225Z,1.77
2019-05-14T10:38:34.788Z,1.70
2019-05-14T10:41:05.952Z,1.40
2019-05-14T10:43:39.254Z,1.20
2019-05-14T10:46:10.552Z,1.47
2019-05-14T10:48:42.108Z,1.30
2019-05-14T10:51:13.320Z,5.27
2019-05-14T10:53:44.747Z,5.23
2019-05-14T10:56:19.047Z,1.50
2019-05-14T10:58:49.889Z,1.43
2019-05-14T11:01:23.042Z,1.30
2019-05-14T11:03:54.356Z,1.67
2019-05-14T11:06:25.553Z,2.40
2019-05-14T11:08:57.168Z,1.30
2019-05-14T11:11:29.054Z,1.13
2019-05-14T11:14:00.725Z,1.07
2019-05-14T11:16:31.915Z,1.20
2019-05-14T11:19:09.354Z,1.17
2019-05-14T11:21:40.379Z,1.13
2019-05-14T11:24:12.377Z,1.40
2019-05-14T11:26:45.165Z,1.30
2019-05-14T11:29:18.573Z,1.93
2019-05-14T11:31:49.335Z,1.30
2019-05-14T11:34:22.085Z,1.30
2019-05-14T11:36:53.408Z,1.30
2019-05-14T11:39:24.636Z,1.30
2019-05-14T11:41:58.750Z,1.97
2019-05-14T11:44:29.226Z,2.13
2019-05-14T11:47:02.651Z,2.67
2019-05-14T11:49:33.729Z,1.60
2019-05-14T11:52:09.712Z,1.77
2019-05-14T11:54:41.009Z,1.43
2019-05-14T11:57:11.997Z,1.80
2019-05-14T11:59:43.276Z,2.87
2019-05-14T12:02:14.989Z,1.67
2019-05-14T12:04:46.285Z,1.33
2019-05-14T12:07:18.708Z,1.83
2019-05-14T12:09:52.410Z,1.40
2019-05-14T12:12:23.768Z,3.10
2019-05-14T12:14:55.075Z,2.87
2019-05-14T12:17:29.340Z,1.70
2019-05-14T12:19:59.704Z,1.37
2019-05-14T12:22:32.140Z,1.30
2019-05-14T12:25:03.344Z,2.50
2019-05-14T12:27:34.566Z,2.33
2019-05-14T12:30:09.509Z,1.53
2019-05-14T12:32:40.012Z,1.30
2019-05-14T12:35:11.559Z,1.20
2019-05-14T12:37:42.946Z,2.00
2019-05-14T12:40:15.827Z,1.73
2019-05-14T12:42:49.649Z,1.87
2019-05-14T12:45:19.961Z,2.40
2019-05-14T12:47:51.186Z,3.13
2019-05-14T12:50:22.728Z,3.00
2019-05-14T12:52:54.237Z,1.90
2019-05-14T12:55:28.448Z,1.10
2019-05-14T12:57:59.644Z,1.50
2019-05-14T13:00:31.423Z,1.30
2019-05-14T13:03:02.807Z,1.47
2019-05-14T13:05:35.625Z,1.20
2019-05-14T13:08:11.222Z,1.27
2019-05-14T13:10:40.264Z,1.17
2019-05-14T13:13:11.606Z,1.33
2019-05-14T13:16:04.243Z,1.20
2019-05-14T13:18:52.500Z,1.10
2019-05-14T13:21:28.937Z,1.30
2019-05-14T13:24:00.141Z,2.90
2019-05-14T13:26:31.593Z,1.87
2019-05-14T13:29:07.070Z,1.60
2019-05-14T13:31:36.138Z,1.57
2019-05-14T13:34:08.881Z,2.23
2019-05-14T13:36:44.586Z,2.40
2019-05-14T13:39:13.501Z,1.87
2019-05-14T13:41:44.931Z,2.27
2019-05-14T13:44:24.332Z,2.37
2019-05-14T13:46:49.395Z,1.90
2019-05-14T13:49:20.855Z,1.77
2019-05-14T13:51:52.064Z,2.03
2019-05-14T13:54:23.682Z,1.37
2019-05-14T13:56:54.996Z,1.90
2019-05-14T13:59:26.199Z,1.50
2019-05-14T14:01:59.147Z,1.70
2019-05-14T14:04:31.265Z,2.27
2019-05-14T14:07:03.538Z,2.80
2019-05-14T14:09:34.752Z,2.53
2019-05-14T14:12:08.093Z,2.70
2019-05-14T14:14:39.009Z,3.00
2019-05-14T14:17:10.282Z,2.93
2019-05-14T14:23:21.111Z,2.37
2019-05-14T14:25:39.612Z,11.13
2019-05-14T14:28:11.489Z,3.20
2019-05-14T14:30:42.882Z,2.43
2019-05-14T14:33:14.386Z,2.30
2019-05-14T14:35:45.607Z,1.80
2019-05-14T14:38:19.754Z,2.47
2019-05-14T14:40:50.197Z,1.67
2019-05-14T14:43:22.113Z,2.30
2019-05-14T14:45:53.343Z,6.03
2019-05-14T14:48:24.729Z,3.67
2019-05-14T14:50:58.490Z,2.50
2019-05-14T14:53:44.971Z,2.97
2019-05-14T14:56:05.199Z,1.80
2019-05-14T14:58:36.453Z,1.57
2019-05-14T15:01:08.862Z,1.47
2019-05-14T15:03:49.362Z,1.80
2019-05-14T15:06:19.913Z,1.70
2019-05-14T15:08:51.511Z,1.77
2019-05-14T15:11:22.839Z,3.60
2019-05-14T15:13:54.379Z,6.60
2019-05-14T15:16:25.790Z,4.70
2019-05-14T15:18:58.279Z,6.60
2019-05-14T15:21:30.117Z,3.20
2019-05-14T15:24:09.841Z,2.40
2019-05-14T15:26:34.665Z,1.70
2019-05-14T15:29:05.918Z,2.83
2019-05-14T15:31:38.624Z,3.30
2019-05-14T15:34:10.075Z,3.17
2019-05-14T15:36:41.869Z,3.27
2019-05-14T15:39:13.608Z,3.70
2019-05-14T15:41:44.942Z,3.77
2019-05-14T15:44:16.125Z,1.90
2019-05-14T15:46:49.282Z,2.27
2019-05-14T15:49:20.258Z,2.00
2019-05-14T15:51:51.609Z,2.23
2019-05-14T15:54:39.861Z,1.70
2019-05-14T15:56:58.635Z,1.60
2019-05-14T15:59:29.244Z,1.80
2019-05-14T16:02:00.470Z,1.97
2019-05-14T16:04:31.973Z,1.50
2019-05-14T16:07:09.532Z,2.10
2019-05-14T16:09:41.079Z,1.97
2019-05-14T16:12:12.329Z,2.70
2019-05-14T16:14:43.715Z,2.97
2019-05-14T16:17:15.740Z,1.80
2019-05-14T16:19:48.737Z,1.80
2019-05-14T16:22:20.310Z,1.70
2019-05-14T16:25:00.865Z,1.20
2019-05-14T16:27:30.613Z,1.77
2019-05-14T16:30:02.041Z,1.53
2019-05-14T16:32:33.283Z,1.50
2019-05-14T16:35:04.988Z,1.70
2019-05-14T16:37:38.849Z,1.50
2019-05-14T16:40:09.584Z,2.00
2019-05-14T16:42:40.875Z,1.80
2019-05-14T16:45:12.717Z,1.80
2019-05-14T16:47:43.936Z,1.67
2019-05-14T16:50:15.371Z,4.23
2019-05-14T16:52:49.239Z,2.50
2019-05-14T16:55:26.439Z,1.70
2019-05-14T16:57:53.481Z,2.50
2019-05-14T17:00:24.854Z,1.67
2019-05-14T17:02:56.057Z,1.50
2019-05-14T17:05:29.945Z,1.57
2019-05-14T17:08:00.425Z,2.10
2019-05-14T17:10:31.898Z,2.43
2019-05-14T17:13:03.407Z,2.17
2019-05-14T17:15:34.658Z,2.23
2019-05-14T17:18:08.653Z,2.23
2019-05-14T17:20:39.563Z,2.20
2019-05-14T17:23:11.195Z,1.97
2019-05-14T17:25:43.982Z,1.70
2019-05-14T17:28:15.488Z,1.70
2019-05-14T17:30:49.135Z,1.70
2019-05-14T17:33:20.619Z,2.13
2019-05-14T17:35:51.869Z,1.73
2019-05-14T17:38:23.106Z,1.97
2019-05-14T17:40:54.635Z,2.10
2019-05-14T17:43:28.231Z,1.60
2019-05-14T17:45:59.087Z,1.90
2019-05-14T17:48:31.859Z,5.17
2019-05-14T17:51:03.192Z,3.70
2019-05-14T17:53:38.558Z,3.07
2019-05-14T17:56:10.142Z,5.97
2019-05-14T17:58:43.303Z,2.80
2019-05-14T18:01:14.666Z,10.60
2019-05-14T18:03:48.849Z,8.53
2019-05-14T18:06:19.258Z,5.10
2019-05-14T18:08:50.672Z,4.97
2019-05-14T18:11:22.128Z,6.00
2019-05-14T18:13:53.615Z,4.40
2019-05-14T18:16:25.028Z,3.50
2019-05-14T18:18:58.286Z,4.57
2019-05-14T18:21:29.293Z,8.70
2019-05-14T18:24:00.640Z,8.70
2019-05-14T18:26:31.925Z,10.33
2019-05-14T18:29:04.631Z,7.60
2019-05-14T18:31:36.118Z,3.97
2019-05-14T18:34:07.353Z,2.77
2019-05-14T18:36:39.510Z,2.13
2019-05-14T18:39:11.062Z,2.70
2019-05-14T18:41:42.284Z,1.80
2019-05-14T18:44:13.550Z,1.67
2019-05-14T18:46:45.143Z,1.90
2019-05-14T18:49:19.258Z,2.33
2019-05-14T18:51:50.326Z,2.23
2019-05-14T18:54:21.705Z,1.77
2019-05-14T18:56:52.921Z,2.73
2019-05-14T18:59:24.284Z,2.97
2019-05-14T19:01:55.650Z,2.40
2019-05-14T19:04:27.951Z,2.37
2019-05-14T19:06:59.797Z,1.90
2019-05-14T19:09:31.146Z,2.10
2019-05-14T19:12:02.324Z,2.20
2019-05-14T19:14:33.905Z,2.50
2019-05-14T19:17:05.951Z,4.37
2019-05-14T19:19:38.609Z,3.30
2019-05-14T19:22:10.248Z,2.70
2019-05-14T19:24:41.708Z,3.30
2019-05-14T19:27:12.952Z,2.47
2019-05-14T19:29:44.171Z,1.80
2019-05-14T19:32:15.426Z,2.10
2019-05-14T19:34:48.660Z,2.80
2019-05-14T19:37:19.765Z,2.60
2019-05-14T19:39:52.727Z,2.20
2019-05-14T19:42:25.756Z,2.30
2019-05-14T19:44:59.784Z,2.30
2019-05-14T19:47:30.214Z,2.83
2019-05-14T19:50:01.437Z,2.77
2019-05-14T19:52:32.668Z,2.70
2019-05-14T19:55:05.675Z,2.97
2019-05-14T19:57:38.349Z,2.87
2019-05-14T20:00:10.804Z,2.80
2019-05-14T20:02:42.629Z,3.17
2019-05-14T20:05:14.777Z,2.90
2019-05-14T20:07:46.311Z,3.27
2019-05-14T20:10:19.618Z,2.53
2019-05-14T20:12:51.081Z,2.90
2019-05-14T20:15:23.385Z,2.87
2019-05-14T20:17:58.048Z,3.07
2019-05-14T20:20:28.973Z,3.10
2019-05-14T20:23:00.292Z,2.93
2019-05-14T20:25:31.504Z,3.20
2019-05-14T20:28:02.982Z,2.90
2019-05-14T20:30:34.168Z,3.27
2019-05-14T20:33:08.552Z,2.87
2019-05-14T20:35:40.122Z,2.80
2019-05-14T20:38:11.348Z,2.97
2019-05-14T20:40:42.778Z,3.70
2019-05-14T20:43:15.695Z,3.37
2019-05-14T20:45:48.851Z,3.37
2019-05-14T20:48:20.382Z,2.93
2019-05-14T20:50:51.715Z,3.23
2019-05-14T20:53:22.931Z,2.80
2019-05-14T20:55:54.250Z,3.13
2019-05-14T20:58:27.810Z,3.57
2019-05-14T21:01:02.417Z,2.37
2019-05-14T21:03:34.020Z,2.80
2019-05-14T21:06:05.254Z,2.60
2019-05-14T21:08:38.005Z,2.40
2019-05-14T21:11:09.533Z,2.33
2019-05-14T21:13:40.784Z,2.50
2019-05-14T21:16:12.253Z,2.60
2019-05-14T21:18:43.620Z,2.90
2019-05-14T21:21:15.815Z,2.33
2019-05-14T21:23:49.027Z,1.97
2019-05-14T21:26:20.407Z,1.73
2019-05-14T21:28:52.167Z,2.07
2019-05-14T21:31:23.406Z,1.80
2019-05-14T21:33:54.919Z,2.50
2019-05-14T21:36:28.248Z,1.90
2019-05-14T21:38:59.860Z,1.53
2019-05-14T21:41:31.126Z,1.73
2019-05-14T21:44:02.358Z,1.80
2019-05-14T21:46:33.750Z,1.73
2019-05-14T21:49:04.993Z,2.00
2019-05-14T21:51:36.508Z,1.50
2019-05-14T21:54:09.434Z,1.80
2019-05-14T21:56:41.525Z,1.73
2019-05-14T21:59:13.103Z,1.90
2019-05-14T22:01:45.484Z,2.17
2019-05-14T22:04:18.683Z,1.70
2019-05-14T22:06:50.367Z,1.90
2019-05-14T22:09:23.182Z,1.43
2019-05-14T22:11:58.274Z,2.10
2019-05-14T22:14:29.563Z,2.10
2019-05-14T22:17:00.832Z,1.40
2019-05-14T22:19:32.082Z,2.00
2019-05-14T22:22:03.518Z,2.53
2019-05-14T22:24:34.887Z,2.20
2019-05-14T22:27:06.182Z,2.20
2019-05-14T22:29:37.945Z,2.53
2019-05-14T22:32:09.335Z,1.93
2019-05-14T22:34:41.457Z,2.33
2019-05-14T22:37:12.802Z,2.30
2019-05-14T22:39:44.321Z,2.17
2019-05-14T22:42:15.623Z,1.93
2019-05-14T22:44:50.152Z,1.93
2019-05-14T22:47:20.401Z,2.17
2019-05-14T22:49:51.739Z,1.93
2019-05-14T22:52:23.097Z,1.90
2019-05-14T22:54:54.342Z,2.00
2019-05-14T22:57:25.853Z,1.63
2019-05-14T22:59:58.075Z,1.67
2019-05-14T23:02:29.715Z,1.60
2019-05-14T23:05:01.186Z,2.00
2019-05-14T23:07:32.510Z,1.70
2019-05-14T23:10:04.010Z,2.30
2019-05-14T23:12:35.236Z,1.80
2019-05-14T23:15:06.735Z,2.50
2019-05-14T23:17:38.934Z,2.27
2019-05-14T23:20:10.626Z,2.00
2019-05-14T23:22:42.237Z,1.67
2019-05-14T23:25:13.475Z,2.40
2019-05-14T23:27:47.639Z,1.90
2019-05-14T23:30:23.209Z,2.43
2019-05-14T23:32:54.400Z,1.87
2019-05-14T23:35:28.211Z,2.30
2019-05-14T23:37:59.026Z,2.17
2019-05-14T23:40:30.263Z,1.80
2019-05-14T23:43:01.615Z,2.87
2019-05-14T23:45:33.121Z,2.90
2019-05-14T23:48:04.315Z,2.40
2019-05-14T23:50:37.772Z,2.40
2019-05-14T23:53:09.392Z,3.10
2019-05-14T23:55:40.664Z,2.20
2019-05-14T23:58:12.001Z,2.70
